createdAt,value
2022-09-21T00:01:14.943Z,1.40
2022-09-21T00:03:42.257Z,1.67
2022-09-21T00:06:16.963Z,1.70
2022-09-21T00:08:44.142Z,1.40
2022-09-21T00:11:14.597Z,1.00
2022-09-21T00:13:41.720Z,1.70
2022-09-21T00:16:08.644Z,1.13
2022-09-21T00:18:35.734Z,1.27
2022-09-21T00:21:06.161Z,1.60
2022-09-21T00:23:34.629Z,1.65
2022-09-21T00:26:11.804Z,1.30
2022-09-21T00:28:38.687Z,1.42
2022-09-21T00:31:06.922Z,1.23
2022-09-21T00:33:33.884Z,1.40
2022-09-21T00:36:07.286Z,1.40
2022-09-21T00:38:34.578Z,1.20
2022-09-21T00:41:01.098Z,1.02
2022-09-21T00:43:27.568Z,0.93
2022-09-21T00:45:57.758Z,1.00
2022-09-21T00:48:24.265Z,1.00
2022-09-21T00:50:54.033Z,1.02
2022-09-21T00:53:21.117Z,0.93
2022-09-21T00:55:50.282Z,0.77
2022-09-21T00:58:18.663Z,1.00
2022-09-21T01:00:45.240Z,0.95
2022-09-21T01:03:13.008Z,0.98
2022-09-21T01:05:39.498Z,1.00
2022-09-21T01:08:07.498Z,1.15
2022-09-21T01:10:46.933Z,1.20
2022-09-21T01:13:20.293Z,1.10
2022-09-21T01:15:52.618Z,0.80
2022-09-21T01:18:19.281Z,1.00
2022-09-21T01:20:54.611Z,1.00
2022-09-21T01:23:40.509Z,1.33
2022-09-21T01:26:11.608Z,1.00
2022-09-21T01:28:41.694Z,1.15
2022-09-21T01:31:11.938Z,0.90
2022-09-21T01:33:46.508Z,0.95
2022-09-21T01:36:15.066Z,0.75
2022-09-21T01:38:45.958Z,0.68
2022-09-21T01:41:13.746Z,0.98
2022-09-21T01:43:46.363Z,0.75
2022-09-21T01:46:15.649Z,0.82
2022-09-21T01:48:44.779Z,1.30
2022-09-21T01:51:13.918Z,1.02
2022-09-21T01:53:49.247Z,1.33
2022-09-21T01:56:15.703Z,0.73
2022-09-21T01:58:47.902Z,1.23
2022-09-21T02:01:16.999Z,1.10
2022-09-21T02:03:52.159Z,1.10
2022-09-21T02:06:18.734Z,1.00
2022-09-21T02:08:45.692Z,1.30
2022-09-21T02:11:13.470Z,1.00
2022-09-21T02:13:43.127Z,1.00
2022-09-21T02:16:28.478Z,1.10
2022-09-21T02:19:13.505Z,0.70
2022-09-21T02:21:51.951Z,1.13
2022-09-21T02:24:21.952Z,0.88
2022-09-21T02:27:02.868Z,1.00
2022-09-21T02:29:35.389Z,0.90
2022-09-21T02:32:11.650Z,1.00
2022-09-21T02:34:46.166Z,1.00
2022-09-21T02:37:31.858Z,0.90
2022-09-21T02:40:09.732Z,0.90
2022-09-21T02:42:39.114Z,1.02
2022-09-21T02:45:09.291Z,1.15
2022-09-21T02:47:39.545Z,0.85
2022-09-21T02:50:07.770Z,0.95
2022-09-21T02:52:35.225Z,1.08
2022-09-21T02:55:01.921Z,1.10
2022-09-21T02:57:28.444Z,0.90
2022-09-21T02:59:54.754Z,0.75
2022-09-21T03:02:21.098Z,0.80
2022-09-21T03:04:48.052Z,0.95
2022-09-21T03:07:15.519Z,0.80
2022-09-21T03:09:42.041Z,0.82
2022-09-21T03:12:08.538Z,0.68
2022-09-21T03:14:34.863Z,1.10
2022-09-21T03:17:02.168Z,1.15
2022-09-21T03:19:29.251Z,0.70
2022-09-21T03:21:55.644Z,1.17
2022-09-21T03:24:40.763Z,0.80
2022-09-21T03:27:08.854Z,0.93
2022-09-21T03:29:35.153Z,1.00
2022-09-21T03:32:01.578Z,1.20
2022-09-21T03:34:27.882Z,0.70
2022-09-21T03:36:54.397Z,0.90
2022-09-21T03:39:20.758Z,0.88
2022-09-21T03:41:47.135Z,0.90
2022-09-21T03:44:15.584Z,0.85
2022-09-21T03:46:41.928Z,1.00
2022-09-21T03:49:08.402Z,0.90
2022-09-21T03:51:34.843Z,0.70
2022-09-21T03:54:01.171Z,0.70
2022-09-21T03:56:27.489Z,0.80
2022-09-21T03:58:53.851Z,0.82
2022-09-21T04:01:20.243Z,0.93
2022-09-21T04:03:46.581Z,1.50
2022-09-21T04:06:13.752Z,1.33
2022-09-21T04:08:40.203Z,1.00
2022-09-21T04:11:13.254Z,0.80
2022-09-21T04:13:39.969Z,0.88
2022-09-21T04:16:06.602Z,1.00
2022-09-21T04:18:33.009Z,1.10
2022-09-21T04:20:59.314Z,1.25
2022-09-21T04:23:25.609Z,1.52
2022-09-21T04:25:54.040Z,1.48
2022-09-21T04:28:20.505Z,1.30
2022-09-21T04:30:47.004Z,1.15
2022-09-21T04:33:14.183Z,1.20
2022-09-21T04:35:41.117Z,1.08
2022-09-21T04:38:07.499Z,0.68
2022-09-21T04:40:33.977Z,1.25
2022-09-21T04:43:00.411Z,1.00
2022-09-21T04:45:26.744Z,0.80
2022-09-21T04:47:53.198Z,0.80
2022-09-21T04:50:19.831Z,1.00
2022-09-21T04:52:46.532Z,0.88
2022-09-21T04:55:12.826Z,1.00
2022-09-21T04:57:39.117Z,1.13
2022-09-21T05:00:06.407Z,0.88
2022-09-21T05:02:32.787Z,0.60
2022-09-21T05:04:59.088Z,1.05
2022-09-21T05:07:25.409Z,0.82
2022-09-21T05:10:03.925Z,0.80
2022-09-21T05:12:34.261Z,0.70
2022-09-21T05:15:01.045Z,1.13
2022-09-21T05:17:27.604Z,0.70
2022-09-21T05:19:53.914Z,0.80
2022-09-21T05:22:20.762Z,0.93
2022-09-21T05:24:47.081Z,0.77
2022-09-21T05:27:13.373Z,0.65
2022-09-21T05:29:40.173Z,1.13
2022-09-21T05:32:12.417Z,0.60
2022-09-21T05:35:04.661Z,0.90
2022-09-21T05:37:51.283Z,0.90
2022-09-21T05:40:17.886Z,0.80
2022-09-21T05:42:44.432Z,1.65
2022-09-21T05:45:13.416Z,2.80
2022-09-21T05:47:51.664Z,1.60
2022-09-21T05:50:18.017Z,1.50
2022-09-21T05:52:55.930Z,0.80
2022-09-21T05:55:29.777Z,0.90
2022-09-21T05:58:04.931Z,1.00
2022-09-21T06:00:41.382Z,0.90
2022-09-21T06:03:22.732Z,0.70
2022-09-21T06:05:49.134Z,1.30
2022-09-21T06:08:15.887Z,1.48
2022-09-21T06:10:42.453Z,1.17
2022-09-21T06:13:08.821Z,1.10
2022-09-21T06:15:38.505Z,0.95
2022-09-21T06:18:08.415Z,0.95
2022-09-21T06:20:35.115Z,1.10
2022-09-21T06:23:08.530Z,1.00
2022-09-21T06:25:35.052Z,0.80
2022-09-21T06:28:02.596Z,0.63
2022-09-21T06:30:29.017Z,0.90
2022-09-21T06:32:58.345Z,0.88
2022-09-21T06:35:24.729Z,0.80
2022-09-21T06:37:51.075Z,0.88
2022-09-21T06:40:17.637Z,0.70
2022-09-21T06:42:43.991Z,1.08
2022-09-21T06:45:10.408Z,0.90
2022-09-21T06:47:36.741Z,0.60
2022-09-21T06:50:03.351Z,1.00
2022-09-21T06:52:29.709Z,0.80
2022-09-21T06:54:56.109Z,1.10
2022-09-21T06:57:24.026Z,0.77
2022-09-21T06:59:50.628Z,1.40
2022-09-21T07:02:17.000Z,1.05
2022-09-21T07:04:44.078Z,0.70
2022-09-21T07:07:10.362Z,0.90
2022-09-21T07:12:23.027Z,1.00
2022-09-21T07:14:49.340Z,1.52
2022-09-21T07:17:16.007Z,1.73
2022-09-21T07:19:42.564Z,1.10
2022-09-21T07:22:09.080Z,1.45
2022-09-21T07:24:35.525Z,1.50
2022-09-21T07:27:01.931Z,1.33
2022-09-21T07:29:28.429Z,1.77
2022-09-21T07:31:54.866Z,1.80
2022-09-21T07:34:21.223Z,1.00
2022-09-21T07:36:47.580Z,1.48
2022-09-21T07:39:14.041Z,0.98
2022-09-21T07:41:40.339Z,1.00
2022-09-21T07:44:06.834Z,1.02
2022-09-21T07:46:33.329Z,0.82
2022-09-21T07:48:59.795Z,1.05
2022-09-21T07:51:26.118Z,1.48
2022-09-21T07:54:00.555Z,1.00
2022-09-21T07:56:26.996Z,0.85
2022-09-21T07:59:08.744Z,1.25
2022-09-21T08:01:36.969Z,1.20
2022-09-21T08:04:03.810Z,1.45
2022-09-21T08:06:32.830Z,1.33
2022-09-21T08:09:00.141Z,1.55
2022-09-21T08:11:27.663Z,2.28
2022-09-21T08:14:03.620Z,0.98
2022-09-21T08:18:56.489Z,1.80
2022-09-21T08:21:22.973Z,1.27
2022-09-21T08:23:49.535Z,1.27
2022-09-21T08:26:19.140Z,0.50
2022-09-21T08:28:50.016Z,1.30
2022-09-21T08:31:18.660Z,1.70
2022-09-21T08:33:45.662Z,1.02
2022-09-21T08:36:12.093Z,1.45
2022-09-21T08:38:39.092Z,1.70
2022-09-21T08:41:17.739Z,1.77
2022-09-21T08:43:45.160Z,0.70
2022-09-21T08:46:13.745Z,0.93
2022-09-21T08:48:42.910Z,1.25
2022-09-21T08:51:11.102Z,0.80
2022-09-21T08:53:42.805Z,0.60
2022-09-21T08:56:13.131Z,0.50
2022-09-21T08:58:43.474Z,0.47
2022-09-21T09:01:28.462Z,0.68
2022-09-21T09:04:04.241Z,0.30
2022-09-21T09:06:37.928Z,0.60
2022-09-21T09:09:18.229Z,0.90
2022-09-21T09:12:11.457Z,0.60
2022-09-21T09:14:46.844Z,0.60
2022-09-21T09:17:13.159Z,1.00
2022-09-21T09:19:42.455Z,0.57
2022-09-21T09:22:11.064Z,0.43
2022-09-21T09:24:37.401Z,1.02
2022-09-21T09:27:15.236Z,0.38
2022-09-21T09:29:47.934Z,1.02
2022-09-21T09:32:15.245Z,0.40
2022-09-21T09:35:04.556Z,0.60
2022-09-21T09:37:33.462Z,1.17
2022-09-21T09:40:00.795Z,0.60
2022-09-21T09:42:30.295Z,0.50
2022-09-21T09:45:15.157Z,0.60
2022-09-21T09:47:44.480Z,0.90
2022-09-21T09:50:13.216Z,0.38
2022-09-21T09:52:40.432Z,0.50
2022-09-21T09:55:33.005Z,0.90
2022-09-21T09:57:59.888Z,0.55
2022-09-21T10:00:26.256Z,1.00
2022-09-21T10:02:56.583Z,0.40
2022-09-21T10:05:22.977Z,0.77
2022-09-21T10:07:49.599Z,0.52
2022-09-21T10:10:34.583Z,0.40
2022-09-21T10:13:06.733Z,0.52
2022-09-21T10:15:33.528Z,0.52
2022-09-21T10:18:06.573Z,0.40
2022-09-21T10:20:33.272Z,0.45
2022-09-21T10:23:00.099Z,0.35
2022-09-21T10:25:26.572Z,0.65
2022-09-21T10:27:53.144Z,0.57
2022-09-21T10:30:38.544Z,0.50
2022-09-21T10:33:18.600Z,0.60
2022-09-21T10:35:52.429Z,0.40
2022-09-21T10:38:22.767Z,0.43
2022-09-21T10:40:50.092Z,0.40
2022-09-21T10:43:39.792Z,0.47
2022-09-21T10:46:07.679Z,0.80
2022-09-21T10:48:34.095Z,0.32
2022-09-21T10:51:00.448Z,0.50
2022-09-21T10:53:36.801Z,0.40
2022-09-21T10:56:15.651Z,0.50
2022-09-21T10:59:01.818Z,0.70
2022-09-21T11:01:28.944Z,0.43
2022-09-21T11:04:10.151Z,0.60
2022-09-21T11:06:42.350Z,0.50
2022-09-21T11:09:08.751Z,0.52
2022-09-21T11:11:39.546Z,0.40
2022-09-21T11:14:24.339Z,0.45
2022-09-21T11:16:58.633Z,0.45
2022-09-21T11:19:43.792Z,0.35
2022-09-21T11:22:18.804Z,0.40
2022-09-21T11:24:49.178Z,0.47
2022-09-21T11:27:27.289Z,0.50
2022-09-21T11:30:07.178Z,0.50
2022-09-21T11:32:59.256Z,0.47
2022-09-21T11:35:34.653Z,0.60
2022-09-21T11:38:13.260Z,0.35
2022-09-21T11:40:39.617Z,0.40
2022-09-21T11:43:07.106Z,0.55
2022-09-21T11:45:57.447Z,0.77
2022-09-21T11:48:23.802Z,0.50
2022-09-21T11:50:54.412Z,0.30
2022-09-21T11:53:23.724Z,0.30
2022-09-21T11:55:52.977Z,0.40
2022-09-21T11:58:19.386Z,0.93
2022-09-21T12:00:50.075Z,0.60
2022-09-21T12:03:19.199Z,0.50
2022-09-21T12:05:49.915Z,0.40
2022-09-21T12:08:19.522Z,0.50
2022-09-21T12:10:45.889Z,0.55
2022-09-21T12:13:30.678Z,0.55
2022-09-21T12:16:03.020Z,0.70
2022-09-21T12:18:32.563Z,0.40
2022-09-21T12:21:06.216Z,0.52
2022-09-21T12:23:32.542Z,0.60
2022-09-21T12:26:01.005Z,0.40
2022-09-21T12:28:30.045Z,0.40
2022-09-21T12:31:02.975Z,0.40
2022-09-21T12:33:51.052Z,0.85
2022-09-21T12:36:22.665Z,0.55
2022-09-21T12:38:53.109Z,0.50
2022-09-21T12:41:39.512Z,0.40
2022-09-21T12:44:24.301Z,0.30
2022-09-21T12:46:54.988Z,0.43
2022-09-21T12:49:24.303Z,0.30
2022-09-21T12:51:55.131Z,0.52
2022-09-21T12:54:44.565Z,0.38
2022-09-21T12:57:40.803Z,0.60
2022-09-21T13:00:10.181Z,0.30
2022-09-21T13:02:36.745Z,0.60
2022-09-21T13:05:06.285Z,0.40
2022-09-21T13:07:44.535Z,0.50
2022-09-21T13:10:20.162Z,0.43
2022-09-21T13:12:47.940Z,0.50
2022-09-21T13:15:22.472Z,0.38
2022-09-21T13:17:58.187Z,0.90
2022-09-21T13:22:57.847Z,0.65
2022-09-21T13:25:28.161Z,0.55
2022-09-21T13:28:00.722Z,0.80
2022-09-21T13:30:50.917Z,0.60
2022-09-21T13:33:20.236Z,0.50
2022-09-21T13:35:48.097Z,0.70
2022-09-21T13:38:27.505Z,0.98
2022-09-21T13:40:58.433Z,0.68
2022-09-21T13:43:25.459Z,0.45
2022-09-21T13:45:53.563Z,0.50
2022-09-21T13:48:26.131Z,0.50
2022-09-21T13:50:56.036Z,0.80
2022-09-21T13:53:25.467Z,0.70
2022-09-21T13:55:54.022Z,0.50
2022-09-21T13:58:23.712Z,0.60
2022-09-21T14:00:50.053Z,0.50
2022-09-21T14:03:22.012Z,0.93
2022-09-21T14:05:55.504Z,0.45
2022-09-21T14:08:25.219Z,0.35
2022-09-21T14:10:52.060Z,0.60
2022-09-21T14:13:24.462Z,0.40
2022-09-21T14:15:51.111Z,0.50
2022-09-21T14:18:19.328Z,0.45
2022-09-21T14:21:04.431Z,0.40
2022-09-21T14:23:31.066Z,0.60
2022-09-21T14:26:01.467Z,0.60
2022-09-21T14:28:36.432Z,0.40
2022-09-21T14:31:05.503Z,0.55
2022-09-21T14:33:43.259Z,0.43
2022-09-21T14:36:09.998Z,1.00
2022-09-21T14:38:41.801Z,0.57
2022-09-21T14:41:12.815Z,0.57
2022-09-21T14:43:44.777Z,0.40
2022-09-21T14:46:32.029Z,0.43
2022-09-21T14:49:11.809Z,0.38
2022-09-21T14:51:47.286Z,0.40
2022-09-21T14:54:26.809Z,0.60
2022-09-21T14:57:03.885Z,0.60
2022-09-21T14:59:34.286Z,0.40
2022-09-21T15:02:03.450Z,0.50
2022-09-21T15:04:31.360Z,0.50
2022-09-21T15:07:22.466Z,0.57
2022-09-21T15:10:19.982Z,0.75
2022-09-21T15:12:52.650Z,0.40
2022-09-21T15:15:31.395Z,0.60
2022-09-21T15:17:59.788Z,0.22
2022-09-21T15:20:27.594Z,0.40
2022-09-21T15:22:55.819Z,0.45
2022-09-21T15:25:23.097Z,0.40
2022-09-21T15:27:50.136Z,0.40
2022-09-21T15:30:21.489Z,0.60
2022-09-21T15:32:48.945Z,0.40
2022-09-21T15:35:15.289Z,0.45
2022-09-21T15:37:42.099Z,0.45
2022-09-21T15:40:24.775Z,0.70
2022-09-21T15:43:01.310Z,0.60
2022-09-21T15:45:33.918Z,0.80
2022-09-21T15:48:00.722Z,0.70
2022-09-21T15:50:28.468Z,0.60
2022-09-21T15:52:59.128Z,0.68
2022-09-21T15:55:25.612Z,0.40
2022-09-21T15:57:53.363Z,0.77
2022-09-21T16:00:22.069Z,0.60
2022-09-21T16:02:57.120Z,0.60
2022-09-21T16:05:25.548Z,0.70
2022-09-21T16:08:04.085Z,0.90
2022-09-21T16:10:30.402Z,0.68
2022-09-21T16:13:01.053Z,0.75
2022-09-21T16:15:30.036Z,0.88
2022-09-21T16:18:01.842Z,1.48
2022-09-21T16:21:00.158Z,1.40
2022-09-21T16:23:29.873Z,0.90
2022-09-21T16:26:00.714Z,1.45
2022-09-21T16:28:31.797Z,0.80
2022-09-21T16:30:59.110Z,1.10
2022-09-21T16:33:41.038Z,0.65
2022-09-21T16:36:19.544Z,0.80
2022-09-21T16:38:47.190Z,0.88
2022-09-21T16:41:14.578Z,1.10
2022-09-21T16:43:43.602Z,1.00
2022-09-21T16:46:10.564Z,1.02
2022-09-21T16:48:37.062Z,1.02
2022-09-21T16:51:03.489Z,1.40
2022-09-21T16:53:29.808Z,0.60
2022-09-21T16:55:56.115Z,1.52
2022-09-21T16:58:22.471Z,1.42
2022-09-21T17:01:00.020Z,1.80
2022-09-21T17:03:29.166Z,1.83
2022-09-21T17:05:57.296Z,1.20
2022-09-21T17:08:24.540Z,2.22
2022-09-21T17:10:50.932Z,5.20
2022-09-21T17:13:19.186Z,1.63
2022-09-21T17:15:47.353Z,2.15
2022-09-21T17:18:13.794Z,1.15
2022-09-21T17:20:41.706Z,0.95
2022-09-21T17:23:08.123Z,0.95
2022-09-21T17:25:35.134Z,0.90
2022-09-21T17:28:02.364Z,1.63
2022-09-21T17:30:29.131Z,1.30
2022-09-21T17:32:56.788Z,1.70
2022-09-21T17:35:30.580Z,1.15
2022-09-21T17:37:57.262Z,1.05
2022-09-21T17:40:24.764Z,1.00
2022-09-21T17:42:52.835Z,1.20
2022-09-21T17:45:26.709Z,1.70
2022-09-21T17:47:53.230Z,1.38
2022-09-21T17:50:23.823Z,1.10
2022-09-21T17:53:08.986Z,1.20
2022-09-21T17:55:35.468Z,1.25
2022-09-21T17:58:02.283Z,1.33
2022-09-21T18:00:43.506Z,1.65
2022-09-21T18:03:23.305Z,1.20
2022-09-21T18:05:50.816Z,1.40
2022-09-21T18:08:17.829Z,0.70
2022-09-21T18:10:48.208Z,1.30
2022-09-21T18:13:32.656Z,1.45
2022-09-21T18:16:26.969Z,1.40
2022-09-21T18:18:59.194Z,1.77
2022-09-21T18:21:27.896Z,1.40
2022-09-21T18:24:03.204Z,1.55
2022-09-21T18:26:32.312Z,0.80
2022-09-21T18:28:59.223Z,1.42
2022-09-21T18:31:36.653Z,1.60
2022-09-21T18:34:03.057Z,1.65
2022-09-21T18:36:32.954Z,1.80
2022-09-21T18:38:59.263Z,1.05
2022-09-21T18:41:31.083Z,1.27
2022-09-21T18:44:16.137Z,1.00
2022-09-21T18:46:55.852Z,0.80
2022-09-21T18:49:40.965Z,1.05
2022-09-21T18:52:20.004Z,1.05
2022-09-21T18:54:46.451Z,2.22
2022-09-21T18:57:14.065Z,1.10
2022-09-21T18:59:41.121Z,0.82
2022-09-21T19:02:15.398Z,1.58
2022-09-21T19:04:42.884Z,1.63
2022-09-21T19:07:14.986Z,0.65
2022-09-21T19:09:52.265Z,0.70
2022-09-21T19:12:30.020Z,1.70
2022-09-21T19:15:02.258Z,2.20
2022-09-21T19:17:50.420Z,1.48
2022-09-21T19:20:23.340Z,2.72
2022-09-21T19:22:58.635Z,2.38
2022-09-21T19:25:40.670Z,2.00
2022-09-21T19:28:16.023Z,2.30
2022-09-21T19:30:42.422Z,1.13
2022-09-21T19:33:45.551Z,1.65
2022-09-21T19:36:09.137Z,2.63
2022-09-21T19:38:35.575Z,0.82
2022-09-21T19:41:07.034Z,0.95
2022-09-21T19:43:41.701Z,2.42
2022-09-21T19:46:11.837Z,1.83
2022-09-21T19:48:45.912Z,2.10
2022-09-21T19:51:19.208Z,1.70
2022-09-21T19:54:07.607Z,1.85
2022-09-21T19:57:04.293Z,1.60
2022-09-21T19:59:42.823Z,1.98
2022-09-21T20:02:13.808Z,2.67
2022-09-21T20:05:01.332Z,1.77
2022-09-21T20:07:42.590Z,1.50
2022-09-21T20:10:09.510Z,1.50
2022-09-21T20:12:48.683Z,1.40
2022-09-21T20:15:20.454Z,1.60
2022-09-21T20:17:54.520Z,0.93
2022-09-21T20:20:26.381Z,1.70
2022-09-21T20:22:53.258Z,1.20
2022-09-21T20:25:27.605Z,1.52
2022-09-21T20:27:57.883Z,1.00
2022-09-21T20:30:26.459Z,1.50
2022-09-21T20:32:57.913Z,0.90
2022-09-21T20:35:25.888Z,1.23
2022-09-21T20:37:52.535Z,1.80
2022-09-21T20:40:20.384Z,1.77
2022-09-21T20:42:46.821Z,1.48
2022-09-21T20:45:13.347Z,1.42
2022-09-21T20:47:39.766Z,0.85
2022-09-21T20:50:13.428Z,1.10
2022-09-21T20:52:41.383Z,2.00
2022-09-21T20:55:09.008Z,1.40
2022-09-21T20:57:37.053Z,1.70
2022-09-21T21:00:06.242Z,1.40
2022-09-21T21:02:33.372Z,0.95
2022-09-21T21:05:00.185Z,0.98
2022-09-21T21:07:30.380Z,1.38
2022-09-21T21:09:58.258Z,1.77
2022-09-21T21:12:24.928Z,0.70
2022-09-21T21:14:51.268Z,1.80
2022-09-21T21:17:18.467Z,0.98
2022-09-21T21:19:45.008Z,1.85
2022-09-21T21:22:12.658Z,2.05
2022-09-21T21:24:42.216Z,2.10
2022-09-21T21:27:14.846Z,0.90
2022-09-21T21:29:42.000Z,1.98
2022-09-21T21:32:08.363Z,1.60
2022-09-21T21:34:34.781Z,1.38
2022-09-21T21:37:01.074Z,1.27
2022-09-21T21:39:27.396Z,2.83
2022-09-21T21:41:53.758Z,0.98
2022-09-21T21:44:20.139Z,2.00
2022-09-21T21:46:46.480Z,0.75
2022-09-21T21:49:13.442Z,0.98
2022-09-21T21:51:40.033Z,1.27
2022-09-21T21:54:06.503Z,2.10
2022-09-21T21:56:32.907Z,2.03
2022-09-21T21:58:59.265Z,1.63
2022-09-21T22:01:26.795Z,2.00
2022-09-21T22:03:54.417Z,1.67
2022-09-21T22:06:21.227Z,1.08
2022-09-21T22:08:48.061Z,1.25
2022-09-21T22:11:15.160Z,0.80
2022-09-21T22:13:41.917Z,1.45
2022-09-21T22:16:10.012Z,1.50
2022-09-21T22:18:36.577Z,1.70
2022-09-21T22:21:07.511Z,1.25
2022-09-21T22:23:34.078Z,0.93
2022-09-21T22:26:05.201Z,1.70
2022-09-21T22:28:32.216Z,1.52
2022-09-21T22:30:59.497Z,1.75
2022-09-21T22:33:27.997Z,1.73
2022-09-21T22:36:09.108Z,1.85
2022-09-21T22:38:40.431Z,1.58
2022-09-21T22:41:09.156Z,1.27
2022-09-21T22:43:35.595Z,0.80
2022-09-21T22:46:02.471Z,1.10
2022-09-21T22:48:28.923Z,1.20
2022-09-21T22:50:55.419Z,0.98
2022-09-21T22:53:22.160Z,1.65
2022-09-21T22:55:48.841Z,1.88
2022-09-21T22:58:15.604Z,1.50
2022-09-21T23:00:42.048Z,1.52
2022-09-21T23:03:08.421Z,0.80
2022-09-21T23:05:34.748Z,1.40
2022-09-21T23:08:01.239Z,1.33
2022-09-21T23:10:27.598Z,1.30
2022-09-21T23:12:53.932Z,1.20
2022-09-21T23:15:20.548Z,2.10
2022-09-21T23:17:47.012Z,1.30
2022-09-21T23:20:14.913Z,1.23
2022-09-21T23:22:41.398Z,1.20
2022-09-21T23:25:07.949Z,0.85
2022-09-21T23:27:34.539Z,1.40
2022-09-21T23:30:07.503Z,1.50
2022-09-21T23:32:33.816Z,1.35
2022-09-21T23:35:00.166Z,0.93
2022-09-21T23:37:26.463Z,1.63
2022-09-21T23:39:52.851Z,0.85
2022-09-21T23:42:19.186Z,1.92
2022-09-21T23:44:45.512Z,1.63
2022-09-21T23:47:11.907Z,1.25
2022-09-21T23:49:38.285Z,1.20
2022-09-21T23:52:04.720Z,1.40
2022-09-21T23:54:31.137Z,1.42
2022-09-21T23:56:57.488Z,1.75
2022-09-21T23:59:23.811Z,1.08
